Time;durP1;ratioP1;P1;durP2;ratioP2;P2;SDS_P1;SDS_P2;PMS_P1;PMS_P2;Temp;Humidity;BMP_temperature;BMP_pressure;BME280_temperature;BME280_humidity;BME280_pressure;Samples;Min_cycle;Max_cycle;Signal;HPM_P1;HPM_P2
2021/12/26 00:00:04;;;;;;;154.90;89.38;;;;;;;;;;5032155;28;20025;-70
2021/12/26 00:02:32;;;;;;;168.40;91.72;;;;;;;;;;5034077;28;20041;-69
2021/12/26 00:04:58;;;;;;;156.45;90.18;;;;;;;;;;5033964;28;20018;-70
2021/12/26 00:07:24;;;;;;;160.77;89.30;;;;;;;;;;5047746;28;20326;-67
2021/12/26 00:09:50;;;;;;;165.82;91.95;;;;;;;;;;5053800;28;20025;-69
2021/12/26 00:12:16;;;;;;;175.20;100.38;;;;;;;;;;5053924;28;20036;-66
2021/12/26 00:14:41;;;;;;;178.20;102.50;;;;;;;;;;5053811;28;20029;-69
2021/12/26 00:17:07;;;;;;;204.32;115.72;;;;;;;;;;5053180;28;20279;-69
2021/12/26 00:19:33;;;;;;;192.88;108.50;;;;;;;;;;5040282;28;20364;-67
2021/12/26 00:21:59;;;;;;;222.35;123.55;;;;;;;;;;5033486;28;20051;-68
2021/12/26 00:24:24;;;;;;;204.23;114.78;;;;;;;;;;5033525;28;20033;-68
2021/12/26 00:26:50;;;;;;;194.70;113.10;;;;;;;;;;5032342;28;20553;-68
2021/12/26 00:29:16;;;;;;;192.32;110.40;;;;;;;;;;5033335;28;20116;-68
2021/12/26 00:31:42;;;;;;;180.95;105.30;;;;;;;;;;5033604;28;20095;-67
2021/12/26 00:34:08;;;;;;;185.38;105.63;;;;;;;;;;5033536;28;20018;-67
2021/12/26 00:36:33;;;;;;;168.95;93.47;;;;;;;;;;5045975;28;20049;-67
2021/12/26 00:38:59;;;;;;;143.93;83.28;;;;;;;;;;5035885;28;20151;-67
2021/12/26 00:41:25;;;;;;;165.82;92.28;;;;;;;;;;5052527;28;20518;-67
2021/12/26 00:43:54;;;;;;;160.77;87.97;;;;;;;;;;5057408;28;20036;-68
2021/12/26 00:46:20;;;;;;;140.30;78.80;;;;;;;;;;5049762;28;20506;-68
2021/12/26 00:48:46;;;;;;;138.25;77.22;;;;;;;;;;5051951;28;20036;-68
2021/12/26 00:51:12;;;;;;;124.30;66.72;;;;;;;;;;5034186;28;20052;-68
2021/12/26 00:53:38;;;;;;;128.20;71.35;;;;;;;;;;5051192;28;20040;-67
2021/12/26 00:56:04;;;;;;;120.03;67.13;;;;;;;;;;5052779;28;20108;-67
2021/12/26 00:58:30;;;;;;;108.88;59.97;;;;;;;;;;5051078;28;20025;-71
2021/12/26 01:00:56;;;;;;;117.00;65.97;;;;;;;;;;5036770;28;20058;-67
2021/12/26 01:03:22;;;;;;;115.03;64.40;;;;;;;;;;5013060;28;20030;-68
2021/12/26 01:05:54;;;;;;;113.78;63.75;;;;;;;;;;5049718;28;20052;-67
2021/12/26 01:08:26;;;;;;;104.25;59.33;;;;;;;;;;5028376;28;20034;-66
2021/12/26 01:11:04;;;;;;;105.05;56.67;;;;;;;;;;5027965;28;20357;-68
2021/12/26 01:13:38;;;;;;;107.22;56.42;;;;;;;;;;5026646;28;20030;-67
2021/12/26 01:16:28;;;;;;;90.32;50.95;;;;;;;;;;5021576;28;20370;-67
2021/12/26 01:19:00;;;;;;;101.32;53.60;;;;;;;;;;5012366;28;20092;-67
2021/12/26 01:21:26;;;;;;;94.40;51.70;;;;;;;;;;5012000;28;20042;-66
2021/12/26 01:24:07;;;;;;;87.80;48.80;;;;;;;;;;5011624;28;20025;-67
2021/12/26 01:26:34;;;;;;;78.63;44.00;;;;;;;;;;5021375;28;20034;-67
2021/12/26 01:29:01;;;;;;;78.47;43.25;;;;;;;;;;5031349;28;20061;-67
2021/12/26 01:31:29;;;;;;;69.50;39.30;;;;;;;;;;5027392;28;20128;-67
2021/12/26 01:34:05;;;;;;;67.88;38.92;;;;;;;;;;5032135;28;20026;-67
2021/12/26 01:36:43;;;;;;;67.13;38.90;;;;;;;;;;5031441;28;20041;-67
2021/12/26 01:39:29;;;;;;;69.40;40.38;;;;;;;;;;5011684;28;20570;-67
2021/12/26 01:42:10;;;;;;;76.07;42.67;;;;;;;;;;5015326;28;20431;-67
2021/12/26 01:44:54;;;;;;;94.32;48.55;;;;;;;;;;5007121;28;71342;-66
2021/12/26 01:47:22;;;;;;;101.10;51.42;;;;;;;;;;5011450;28;20050;-68
2021/12/26 01:49:47;;;;;;;86.78;48.50;;;;;;;;;;5022187;28;70107;-66
2021/12/26 01:52:13;;;;;;;76.35;45.08;;;;;;;;;;5031241;28;20037;-68
2021/12/26 01:54:45;;;;;;;71.32;40.63;;;;;;;;;;5031288;28;20060;-68
2021/12/26 01:57:14;;;;;;;66.90;39.53;;;;;;;;;;5029797;28;20392;-66
2021/12/26 01:59:41;;;;;;;69.70;38.85;;;;;;;;;;5029723;28;20121;-69
2021/12/26 02:02:14;;;;;;;75.20;40.53;;;;;;;;;;5031231;28;20376;-67
2021/12/26 02:04:41;;;;;;;77.53;44.53;;;;;;;;;;5049811;28;20045;-68
2021/12/26 02:07:08;;;;;;;86.90;47.22;;;;;;;;;;5044844;28;20029;-68
2021/12/26 02:09:35;;;;;;;78.20;45.22;;;;;;;;;;5050206;28;20394;-67
2021/12/26 02:12:04;;;;;;;85.30;47.00;;;;;;;;;;5047433;28;20106;-68
2021/12/26 02:14:30;;;;;;;88.00;49.67;;;;;;;;;;5028832;28;20045;-68
2021/12/26 02:17:16;;;;;;;93.03;51.83;;;;;;;;;;5021001;28;20045;-67
2021/12/26 02:19:43;;;;;;;87.47;49.70;;;;;;;;;;5037323;28;20084;-67
2021/12/26 02:22:14;;;;;;;90.15;46.75;;;;;;;;;;5051069;28;20131;-69
2021/12/26 02:27:36;;;;;;;77.50;44.08;;;;;;;;;;5048223;28;20045;-66
2021/12/26 02:30:07;;;;;;;76.80;42.97;;;;;;;;;;5031145;28;20057;-66
2021/12/26 02:32:34;;;;;;;82.70;45.75;;;;;;;;;;5063933;28;20442;-67
2021/12/26 02:35:01;;;;;;;86.45;48.38;;;;;;;;;;5045456;27;20094;-67
2021/12/26 02:37:27;;;;;;;90.72;50.58;;;;;;;;;;5049433;28;20049;-66
2021/12/26 02:39:53;;;;;;;90.97;49.58;;;;;;;;;;5030612;28;20069;-68
2021/12/26 02:42:21;;;;;;;88.65;47.35;;;;;;;;;;5030813;28;20037;-68
2021/12/26 02:44:47;;;;;;;88.50;47.55;;;;;;;;;;5044192;28;20048;-68
2021/12/26 02:47:28;;;;;;;84.47;45.88;;;;;;;;;;5049557;28;20052;-67
2021/12/26 02:49:58;;;;;;;84.47;45.63;;;;;;;;;;5041445;28;20048;-67
2021/12/26 02:52:24;;;;;;;86.72;46.70;;;;;;;;;;5049093;28;20490;-68
2021/12/26 02:54:50;;;;;;;78.53;46.35;;;;;;;;;;5050312;28;20120;-66
2021/12/26 02:57:16;;;;;;;83.35;44.63;;;;;;;;;;5050197;28;20029;-67
2021/12/26 02:59:41;;;;;;;78.90;42.22;;;;;;;;;;5046452;28;20060;-68
2021/12/26 03:02:07;;;;;;;63.20;38.33;;;;;;;;;;5030398;28;20454;-67
2021/12/26 03:04:35;;;;;;;72.90;42.67;;;;;;;;;;5063547;28;20042;-67
2021/12/26 03:07:03;;;;;;;70.97;41.15;;;;;;;;;;5031656;28;20350;-67
2021/12/26 03:09:44;;;;;;;71.07;42.20;;;;;;;;;;5031857;28;20046;-68
2021/12/26 03:12:11;;;;;;;72.63;41.50;;;;;;;;;;5030593;28;20064;-68
2021/12/26 03:14:39;;;;;;;80.68;44.75;;;;;;;;;;5031641;28;20556;-68
2021/12/26 03:17:08;;;;;;;85.35;46.80;;;;;;;;;;5028441;28;20038;-68
2021/12/26 03:19:35;;;;;;;88.70;47.40;;;;;;;;;;5045319;28;20072;-68
2021/12/26 03:22:01;;;;;;;79.85;44.03;;;;;;;;;;5047877;28;20519;-68
2021/12/26 03:24:27;;;;;;;81.43;47.35;;;;;;;;;;5031224;28;20119;-68
2021/12/26 03:27:02;;;;;;;81.10;45.53;;;;;;;;;;5047833;28;20172;-68
2021/12/26 03:29:28;;;;;;;77.28;43.17;;;;;;;;;;5032536;28;20048;-69
2021/12/26 03:31:55;;;;;;;72.38;42.45;;;;;;;;;;5031118;28;20156;-68
2021/12/26 03:34:21;;;;;;;69.40;38.85;;;;;;;;;;5032744;28;20062;-67
2021/12/26 03:36:51;;;;;;;62.17;37.67;;;;;;;;;;5046385;28;20029;-67
2021/12/26 03:39:20;;;;;;;57.22;32.92;;;;;;;;;;5031256;28;20059;-69
2021/12/26 03:41:46;;;;;;;67.18;37.13;;;;;;;;;;5047995;28;20043;-68
2021/12/26 03:44:13;;;;;;;56.90;34.85;;;;;;;;;;5032491;28;20029;-69
2021/12/26 03:46:39;;;;;;;54.42;30.73;;;;;;;;;;5031111;28;20076;-68
2021/12/26 03:49:06;;;;;;;50.58;30.60;;;;;;;;;;5031497;28;20033;-69
2021/12/26 03:51:33;;;;;;;55.55;31.75;;;;;;;;;;5011633;28;20477;-68
2021/12/26 03:54:04;;;;;;;63.00;37.03;;;;;;;;;;5011316;28;20434;-68
2021/12/26 03:56:31;;;;;;;60.58;34.22;;;;;;;;;;5012492;28;20440;-67
2021/12/26 03:59:16;;;;;;;56.45;33.70;;;;;;;;;;5011174;28;20029;-67
2021/12/26 04:01:42;;;;;;;52.88;31.95;;;;;;;;;;5015243;28;20041;-68
2021/12/26 04:04:08;;;;;;;54.85;32.33;;;;;;;;;;5024428;28;20092;-68
2021/12/26 04:06:34;;;;;;;52.95;30.58;;;;;;;;;;5033491;28;20033;-68
2021/12/26 04:09:00;;;;;;;51.85;30.27;;;;;;;;;;5034670;28;20057;-68
2021/12/26 04:11:26;;;;;;;50.83;28.52;;;;;;;;;;5033139;28;20141;-67
2021/12/26 04:13:52;;;;;;;45.80;27.10;;;;;;;;;;5033469;28;20022;-67
2021/12/26 04:16:18;;;;;;;46.47;29.08;;;;;;;;;;5033153;28;20025;-67
2021/12/26 04:18:45;;;;;;;45.10;28.65;;;;;;;;;;5033106;28;20025;-68
2021/12/26 04:21:11;;;;;;;45.45;27.77;;;;;;;;;;5033262;28;20169;-68
2021/12/26 04:23:52;;;;;;;43.45;26.38;;;;;;;;;;5033053;28;20025;-68
2021/12/26 04:26:18;;;;;;;39.72;24.63;;;;;;;;;;5034294;28;20079;-66
2021/12/26 04:28:44;;;;;;;45.03;26.83;;;;;;;;;;5033017;28;20037;-67
2021/12/26 04:31:10;;;;;;;41.63;24.75;;;;;;;;;;5033048;28;20065;-67
2021/12/26 04:33:36;;;;;;;42.72;24.98;;;;;;;;;;5033212;28;20486;-69
2021/12/26 04:36:02;;;;;;;47.28;25.83;;;;;;;;;;5032513;28;20029;-68
2021/12/26 04:38:28;;;;;;;49.80;27.75;;;;;;;;;;5035317;28;20057;-67
2021/12/26 04:40:53;;;;;;;48.40;28.90;;;;;;;;;;5033648;28;20131;-68
2021/12/26 04:43:52;;;;;;;49.63;27.38;;;;;;;;;;5027801;28;20034;-68
2021/12/26 04:46:31;;;;;;;49.65;29.05;;;;;;;;;;5032757;28;20041;-67
2021/12/26 04:49:06;;;;;;;48.35;29.45;;;;;;;;;;5032429;28;20494;-67
2021/12/26 04:51:32;;;;;;;52.83;31.73;;;;;;;;;;5050500;28;20036;-67
2021/12/26 04:54:02;;;;;;;52.25;32.05;;;;;;;;;;5052439;28;20021;-67
2021/12/26 04:56:28;;;;;;;56.28;32.63;;;;;;;;;;5041157;28;20116;-68
2021/12/26 04:58:54;;;;;;;50.30;29.50;;;;;;;;;;5029255;28;20508;-67
2021/12/26 05:01:20;;;;;;;55.33;32.85;;;;;;;;;;5037877;28;20037;-67
2021/12/26 05:03:45;;;;;;;53.22;32.35;;;;;;;;;;5053515;28;20080;-67
2021/12/26 05:06:11;;;;;;;54.17;32.85;;;;;;;;;;5051902;28;20033;-67
2021/12/26 05:08:37;;;;;;;51.78;31.48;;;;;;;;;;5053517;28;20017;-67
2021/12/26 05:11:04;;;;;;;54.92;31.00;;;;;;;;;;5053207;28;20037;-67
2021/12/26 05:13:30;;;;;;;51.15;29.40;;;;;;;;;;5051617;28;20472;-67
2021/12/26 05:15:56;;;;;;;50.80;28.92;;;;;;;;;;5052965;28;20044;-68
2021/12/26 05:18:22;;;;;;;47.92;26.85;;;;;;;;;;5050931;28;20025;-67
2021/12/26 05:20:52;;;;;;;47.67;28.15;;;;;;;;;;5030635;28;20120;-67
2021/12/26 05:23:18;;;;;;;47.63;28.70;;;;;;;;;;5030740;28;20124;-67
2021/12/26 05:25:44;;;;;;;48.33;29.63;;;;;;;;;;5033925;28;20490;-67
2021/12/26 05:28:10;;;;;;;53.00;29.85;;;;;;;;;;5032723;28;20129;-70
2021/12/26 05:30:36;;;;;;;43.50;25.58;;;;;;;;;;5034222;28;20131;-68
2021/12/26 05:33:25;;;;;;;44.35;26.30;;;;;;;;;;5031218;28;20046;-68
2021/12/26 05:35:54;;;;;;;52.47;29.20;;;;;;;;;;5032651;28;20120;-68
2021/12/26 05:38:21;;;;;;;48.58;28.45;;;;;;;;;;5031386;28;20029;-66
2021/12/26 05:40:48;;;;;;;50.63;28.30;;;;;;;;;;5032506;28;20041;-67
2021/12/26 05:43:14;;;;;;;49.65;29.58;;;;;;;;;;5043325;28;20560;-66
2021/12/26 05:45:41;;;;;;;41.67;26.65;;;;;;;;;;5050376;28;20399;-68
2021/12/26 05:48:27;;;;;;;43.45;26.30;;;;;;;;;;5066271;28;20067;-71
2021/12/26 05:50:53;;;;;;;44.13;26.02;;;;;;;;;;5042317;28;20065;-69
2021/12/26 05:53:37;;;;;;;43.28;25.08;;;;;;;;;;5033758;28;20125;-71
2021/12/26 05:56:04;;;;;;;48.22;26.85;;;;;;;;;;5057312;28;20025;-68
2021/12/26 05:58:30;;;;;;;39.80;24.55;;;;;;;;;;5046534;28;20123;-72
2021/12/26 06:00:57;;;;;;;43.88;25.92;;;;;;;;;;5032701;28;20420;-70
2021/12/26 06:03:23;;;;;;;44.75;25.85;;;;;;;;;;5048798;28;20025;-76
2021/12/26 06:05:50;;;;;;;38.13;24.42;;;;;;;;;;5048693;28;20492;-71
2021/12/26 06:08:21;;;;;;;38.90;24.33;;;;;;;;;;5032522;28;20032;-71
2021/12/26 06:10:47;;;;;;;38.78;23.98;;;;;;;;;;5032111;28;20471;-70
2021/12/26 06:13:14;;;;;;;38.30;22.00;;;;;;;;;;5033305;28;20072;-71
2021/12/26 06:15:40;;;;;;;33.33;21.25;;;;;;;;;;5048688;28;20033;-70
2021/12/26 06:18:06;;;;;;;36.05;21.45;;;;;;;;;;5048814;28;20048;-71
2021/12/26 06:20:52;;;;;;;28.20;17.52;;;;;;;;;;5033383;28;20451;-70
2021/12/26 06:23:52;;;;;;;29.10;17.67;;;;;;;;;;5031294;28;20381;-70
2021/12/26 06:26:30;;;;;;;29.73;16.88;;;;;;;;;;5033748;28;20044;-70
2021/12/26 06:28:57;;;;;;;25.77;16.67;;;;;;;;;;5032023;28;20049;-73
2021/12/26 06:31:35;;;;;;;21.33;13.93;;;;;;;;;;5033161;28;20039;-70
2021/12/26 06:34:20;;;;;;;23.23;14.27;;;;;;;;;;5033437;28;20115;-77
2021/12/26 06:37:04;;;;;;;25.60;15.02;;;;;;;;;;5032856;28;20036;-72
2021/12/26 06:39:49;;;;;;;25.98;15.45;;;;;;;;;;5033252;28;20586;-74
2021/12/26 06:42:40;;;;;;;25.63;15.45;;;;;;;;;;5031857;28;20037;-70
2021/12/26 06:45:25;;;;;;;28.50;16.70;;;;;;;;;;5033184;28;20106;-75
2021/12/26 06:48:20;;;;;;;27.15;16.55;;;;;;;;;;5030946;28;20045;-71
2021/12/26 06:50:48;;;;;;;23.80;15.27;;;;;;;;;;5031581;28;20092;-70
2021/12/26 06:53:14;;;;;;;22.55;13.73;;;;;;;;;;5032926;28;20026;-71
2021/12/26 06:55:41;;;;;;;19.48;13.63;;;;;;;;;;5032690;28;20033;-69
2021/12/26 06:58:10;;;;;;;23.60;15.55;;;;;;;;;;5032752;28;21043;-70
2021/12/26 07:00:37;;;;;;;28.65;17.17;;;;;;;;;;5047653;28;20033;-69
2021/12/26 07:03:03;;;;;;;30.65;17.85;;;;;;;;;;5048059;28;20022;-70
2021/12/26 07:05:30;;;;;;;32.63;18.17;;;;;;;;;;5047884;28;20096;-70
2021/12/26 07:08:01;;;;;;;39.45;18.67;;;;;;;;;;5047968;28;20021;-72
2021/12/26 07:10:28;;;;;;;37.63;19.75;;;;;;;;;;5047817;28;20048;-71
2021/12/26 07:12:55;;;;;;;34.70;20.40;;;;;;;;;;5047880;28;20036;-72
2021/12/26 07:15:31;;;;;;;37.28;20.17;;;;;;;;;;5031239;28;20043;-71
2021/12/26 07:17:59;;;;;;;41.45;24.30;;;;;;;;;;5035710;28;20033;-71
2021/12/26 07:20:28;;;;;;;37.22;22.33;;;;;;;;;;5028712;28;20032;-73
2021/12/26 07:23:12;;;;;;;41.45;23.98;;;;;;;;;;5030700;28;20068;-72
2021/12/26 07:25:42;;;;;;;42.60;23.88;;;;;;;;;;5030076;28;20034;-74
2021/12/26 07:28:08;;;;;;;35.75;22.77;;;;;;;;;;5030893;28;20041;-71
2021/12/26 07:30:33;;;;;;;40.13;25.00;;;;;;;;;;5032449;28;20030;-70
2021/12/26 07:32:59;;;;;;;44.40;23.95;;;;;;;;;;5020200;28;20112;-71
2021/12/26 07:35:26;;;;;;;38.45;24.13;;;;;;;;;;5045549;28;20029;-70
2021/12/26 07:38:02;;;;;;;42.88;25.05;;;;;;;;;;5047644;28;20040;-70
2021/12/26 07:40:28;;;;;;;32.58;19.70;;;;;;;;;;5051188;28;20029;-72
2021/12/26 07:43:00;;;;;;;43.60;26.08;;;;;;;;;;5050905;28;20029;-71
2021/12/26 07:45:44;;;;;;;49.90;30.17;;;;;;;;;;5035550;28;20095;-70
2021/12/26 07:48:11;;;;;;;48.53;30.73;;;;;;;;;;5050529;28;21082;-69
2021/12/26 07:50:37;;;;;;;53.45;30.40;;;;;;;;;;5050914;28;20038;-70
2021/12/26 07:53:22;;;;;;;41.58;24.85;;;;;;;;;;5035878;28;20438;-71
2021/12/26 07:56:07;;;;;;;41.53;26.33;;;;;;;;;;5039282;28;20385;-70
2021/12/26 07:58:51;;;;;;;36.33;23.88;;;;;;;;;;5035755;28;20068;-70
2021/12/26 08:01:43;;;;;;;37.03;24.30;;;;;;;;;;5034242;28;20046;-70
2021/12/26 08:04:28;;;;;;;39.80;24.50;;;;;;;;;;5043701;28;20056;-71
2021/12/26 08:07:23;;;;;;;38.05;23.75;;;;;;;;;;5015578;28;20049;-68
2021/12/26 08:09:49;;;;;;;39.03;23.40;;;;;;;;;;5050023;28;20068;-70
2021/12/26 08:12:15;;;;;;;40.63;26.25;;;;;;;;;;5050540;28;20040;-70
2021/12/26 08:14:41;;;;;;;46.95;28.20;;;;;;;;;;5034870;28;20318;-71
2021/12/26 08:17:07;;;;;;;44.25;26.50;;;;;;;;;;5034686;28;20036;-69
2021/12/26 08:19:32;;;;;;;42.63;26.45;;;;;;;;;;5035266;28;20120;-70
2021/12/26 08:21:58;;;;;;;42.90;26.02;;;;;;;;;;5034269;28;20030;-72
2021/12/26 08:24:26;;;;;;;47.03;26.63;;;;;;;;;;5037281;28;20403;-69
2021/12/26 08:26:53;;;;;;;42.92;27.23;;;;;;;;;;5054525;28;20035;-69
2021/12/26 08:29:23;;;;;;;45.70;29.35;;;;;;;;;;5037302;28;20067;-69
2021/12/26 08:31:53;;;;;;;45.33;30.05;;;;;;;;;;5034279;28;20519;-69
2021/12/26 08:34:22;;;;;;;53.75;34.67;;;;;;;;;;5034279;28;20068;-69
2021/12/26 08:37:01;;;;;;;51.45;32.40;;;;;;;;;;5034617;28;20029;-71
2021/12/26 08:39:28;;;;;;;58.03;32.85;;;;;;;;;;5034651;28;20051;-69
2021/12/26 08:41:54;;;;;;;66.32;36.08;;;;;;;;;;5034814;28;20021;-71
2021/12/26 08:44:21;;;;;;;62.72;36.28;;;;;;;;;;5056433;28;20032;-70
2021/12/26 08:46:47;;;;;;;61.95;34.65;;;;;;;;;;5052646;28;20561;-71
2021/12/26 08:49:14;;;;;;;54.05;33.42;;;;;;;;;;5051785;28;20029;-72
2021/12/26 08:51:40;;;;;;;64.13;39.28;;;;;;;;;;5054215;28;20036;-70
2021/12/26 08:54:06;;;;;;;67.55;41.28;;;;;;;;;;5054192;28;20029;-71
2021/12/26 08:56:32;;;;;;;69.90;41.67;;;;;;;;;;5053879;28;20387;-69
2021/12/26 08:58:58;;;;;;;67.53;41.38;;;;;;;;;;5054019;28;20033;-70
2021/12/26 09:01:24;;;;;;;69.60;40.83;;;;;;;;;;5053176;28;20491;-70
2021/12/26 09:03:49;;;;;;;62.25;39.63;;;;;;;;;;5053563;28;20065;-70
2021/12/26 09:06:15;;;;;;;66.32;40.80;;;;;;;;;;5053648;28;20106;-68
2021/12/26 09:08:41;;;;;;;70.53;40.72;;;;;;;;;;5053394;28;20033;-70
2021/12/26 09:11:07;;;;;;;69.10;38.42;;;;;;;;;;5053704;28;20044;-70
2021/12/26 09:13:33;;;;;;;58.35;34.55;;;;;;;;;;5053952;28;20033;-71
2021/12/26 09:15:59;;;;;;;52.00;30.92;;;;;;;;;;5053804;28;20025;-70
2021/12/26 09:18:25;;;;;;;49.47;27.85;;;;;;;;;;5054056;28;20029;-70
2021/12/26 09:20:51;;;;;;;45.10;28.75;;;;;;;;;;5053432;28;20124;-71
2021/12/26 09:23:17;;;;;;;43.28;26.95;;;;;;;;;;5040024;28;20480;-71
2021/12/26 09:25:43;;;;;;;45.42;26.83;;;;;;;;;;5046196;28;20091;-70
2021/12/26 09:28:09;;;;;;;46.47;26.10;;;;;;;;;;5046825;28;20041;-70
2021/12/26 09:30:36;;;;;;;40.92;23.30;;;;;;;;;;5040494;28;20128;-70
2021/12/26 09:33:02;;;;;;;45.13;24.15;;;;;;;;;;5033606;28;20041;-71
2021/12/26 09:35:28;;;;;;;41.28;22.45;;;;;;;;;;5046520;28;20083;-73
2021/12/26 09:37:54;;;;;;;46.13;25.42;;;;;;;;;;5053034;28;20106;-70
2021/12/26 09:40:20;;;;;;;39.22;24.25;;;;;;;;;;5052717;28;20463;-71
2021/12/26 09:42:46;;;;;;;40.15;22.92;;;;;;;;;;5053094;28;20041;-70
2021/12/26 09:45:13;;;;;;;35.70;22.80;;;;;;;;;;5053118;28;20048;-72
2021/12/26 09:47:41;;;;;;;40.08;23.05;;;;;;;;;;5052323;28;20041;-70
2021/12/26 09:50:11;;;;;;;38.50;21.88;;;;;;;;;;5052575;28;20131;-69
2021/12/26 09:52:40;;;;;;;42.55;25.33;;;;;;;;;;5052819;28;20081;-70
2021/12/26 09:55:06;;;;;;;41.90;22.95;;;;;;;;;;5052667;28;20037;-68
2021/12/26 09:57:32;;;;;;;39.47;22.90;;;;;;;;;;5053043;28;20056;-71
2021/12/26 09:59:58;;;;;;;37.97;23.27;;;;;;;;;;5052785;28;20151;-67
2021/12/26 10:02:24;;;;;;;35.17;21.77;;;;;;;;;;5052600;28;20094;-75
2021/12/26 10:04:51;;;;;;;41.00;25.42;;;;;;;;;;5052806;28;20467;-69
2021/12/26 10:07:21;;;;;;;26.33;16.20;;;;;;;;;;5052692;28;20033;-71
2021/12/26 10:09:49;;;;;;;38.08;22.58;;;;;;;;;;5052356;28;20582;-70
2021/12/26 10:12:17;;;;;;;40.63;24.67;;;;;;;;;;5052360;28;20124;-68
2021/12/26 10:14:48;;;;;;;34.83;21.27;;;;;;;;;;5052200;28;20017;-68
2021/12/26 10:17:19;;;;;;;29.35;16.63;;;;;;;;;;5051945;28;20052;-69
2021/12/26 10:19:46;;;;;;;41.70;21.50;;;;;;;;;;5052244;28;20079;-69
2021/12/26 10:22:14;;;;;;;29.60;16.77;;;;;;;;;;5051894;28;20537;-70
2021/12/26 10:24:45;;;;;;;28.90;16.90;;;;;;;;;;5051704;28;20037;-68
2021/12/26 10:27:15;;;;;;;32.10;18.52;;;;;;;;;;5051938;28;20036;-71
2021/12/26 10:29:43;;;;;;;27.17;15.05;;;;;;;;;;5051560;28;20081;-69
2021/12/26 10:32:20;;;;;;;22.20;12.65;;;;;;;;;;5051797;28;20434;-69
2021/12/26 10:34:52;;;;;;;19.60;12.57;;;;;;;;;;5052068;28;20041;-70
2021/12/26 10:37:28;;;;;;;24.90;13.50;;;;;;;;;;5050582;28;20506;-71
2021/12/26 10:39:57;;;;;;;28.52;16.33;;;;;;;;;;5067296;28;20037;-71
2021/12/26 10:42:34;;;;;;;37.55;17.17;;;;;;;;;;5050622;28;20514;-68
2021/12/26 10:45:12;;;;;;;34.00;20.35;;;;;;;;;;5052019;28;20041;-69
2021/12/26 10:47:41;;;;;;;32.10;20.70;;;;;;;;;;5051995;28;20036;-68
2021/12/26 10:50:19;;;;;;;32.75;21.02;;;;;;;;;;5051872;28;20085;-68
2021/12/26 10:52:59;;;;;;;33.22;20.83;;;;;;;;;;5051904;28;20067;-67
2021/12/26 10:55:35;;;;;;;40.45;25.85;;;;;;;;;;5051674;28;20479;-68
2021/12/26 10:58:06;;;;;;;49.90;30.60;;;;;;;;;;5052059;28;20053;-68
2021/12/26 11:00:39;;;;;;;45.15;28.80;;;;;;;;;;5051620;28;20033;-68
2021/12/26 11:03:10;;;;;;;46.35;26.95;;;;;;;;;;5051676;28;20187;-71
2021/12/26 11:05:40;;;;;;;59.25;28.75;;;;;;;;;;5051884;28;20514;-68
2021/12/26 11:08:29;;;;;;;58.42;31.40;;;;;;;;;;5051037;28;20041;-69
2021/12/26 11:10:56;;;;;;;53.60;30.40;;;;;;;;;;5054090;28;20094;-70
2021/12/26 11:13:31;;;;;;;53.38;31.50;;;;;;;;;;5056067;28;20036;-69
2021/12/26 11:16:06;;;;;;;48.08;28.58;;;;;;;;;;5055749;28;20044;-67
2021/12/26 11:18:33;;;;;;;53.70;31.45;;;;;;;;;;5056016;28;20033;-67
2021/12/26 11:21:03;;;;;;;42.70;26.17;;;;;;;;;;5055550;28;20032;-70
2021/12/26 11:23:33;;;;;;;41.92;24.88;;;;;;;;;;5055984;28;20399;-70
2021/12/26 11:26:05;;;;;;;42.35;25.25;;;;;;;;;;5056086;28;20043;-69
2021/12/26 11:28:37;;;;;;;51.05;27.10;;;;;;;;;;5055531;28;20041;-68
2021/12/26 11:31:12;;;;;;;54.10;31.83;;;;;;;;;;5055157;28;20041;-69
2021/12/26 11:33:39;;;;;;;40.28;24.45;;;;;;;;;;5055009;28;20036;-72
2021/12/26 11:36:09;;;;;;;42.00;24.60;;;;;;;;;;5055274;28;20049;-70
2021/12/26 11:38:36;;;;;;;31.40;19.73;;;;;;;;;;5055656;28;20436;-70
2021/12/26 11:41:53;;;;;;;40.63;22.25;;;;;;;;;;5043260;28;20041;-69
2021/12/26 11:45:12;;;;;;;37.30;21.38;;;;;;;;;;5065816;28;20084;-69
2021/12/26 11:48:27;;;;;;;30.52;18.42;;;;;;;;;;5035010;28;20442;-69
2021/12/26 11:51:44;;;;;;;29.23;17.45;;;;;;;;;;5024146;28;20046;-70
2021/12/26 11:54:30;;;;;;;29.17;18.80;;;;;;;;;;5035016;28;20503;-68
2021/12/26 11:57:24;;;;;;;25.92;16.70;;;;;;;;;;5032752;28;20029;-70
2021/12/26 12:00:16;;;;;;;29.02;16.80;;;;;;;;;;5037413;28;20083;-70
2021/12/26 12:02:51;;;;;;;48.67;20.75;;;;;;;;;;5055469;28;20045;-69
2021/12/26 12:05:18;;;;;;;52.83;22.58;;;;;;;;;;5047442;28;20087;-68
2021/12/26 12:07:57;;;;;;;65.22;23.58;;;;;;;;;;5044129;28;20025;-70
2021/12/26 12:11:05;;;;;;;42.72;21.33;;;;;;;;;;5041601;28;20057;-71
2021/12/26 12:13:53;;;;;;;32.95;18.98;;;;;;;;;;5046594;28;20124;-71
2021/12/26 12:16:22;;;;;;;36.10;21.00;;;;;;;;;;5048675;28;20450;-68
2021/12/26 12:18:48;;;;;;;45.13;21.90;;;;;;;;;;5054264;28;20055;-69
2021/12/26 12:21:37;;;;;;;31.63;18.52;;;;;;;;;;5054058;28;20075;-69
2021/12/26 12:24:09;;;;;;;30.45;16.67;;;;;;;;;;5054523;28;20037;-68
2021/12/26 12:26:41;;;;;;;32.40;19.00;;;;;;;;;;5054006;28;20037;-69
2021/12/26 12:29:09;;;;;;;37.45;20.67;;;;;;;;;;5054206;28;20040;-69
2021/12/26 12:31:35;;;;;;;38.25;17.65;;;;;;;;;;5054451;28;20060;-70
2021/12/26 12:34:10;;;;;;;32.28;17.73;;;;;;;;;;5054341;28;20078;-69
2021/12/26 12:36:39;;;;;;;29.95;18.20;;;;;;;;;;5054235;28;20131;-69
2021/12/26 12:39:09;;;;;;;28.60;17.88;;;;;;;;;;5053562;28;20548;-70
2021/12/26 12:41:39;;;;;;;29.58;16.98;;;;;;;;;;5054645;28;20376;-69
2021/12/26 12:44:25;;;;;;;30.10;16.67;;;;;;;;;;5044935;28;20187;-70
2021/12/26 12:47:04;;;;;;;35.78;20.52;;;;;;;;;;5052586;28;20594;-69
2021/12/26 12:49:45;;;;;;;31.40;20.00;;;;;;;;;;5053010;28;20124;-69
2021/12/26 12:52:38;;;;;;;33.83;21.35;;;;;;;;;;5053593;28;20182;-68
2021/12/26 12:55:07;;;;;;;46.83;25.63;;;;;;;;;;5054046;28;20036;-69
2021/12/26 12:57:37;;;;;;;44.45;28.88;;;;;;;;;;5053964;28;20498;-68
2021/12/26 13:00:26;;;;;;;47.10;28.55;;;;;;;;;;5052304;28;20057;-67
2021/12/26 13:02:57;;;;;;;55.35;31.70;;;;;;;;;;5061521;28;20466;-69
2021/12/26 13:05:24;;;;;;;64.50;32.42;;;;;;;;;;5073777;28;20032;-68
2021/12/26 13:08:07;;;;;;;60.45;33.78;;;;;;;;;;5073959;28;20028;-68
2021/12/26 13:10:34;;;;;;;53.67;30.77;;;;;;;;;;5033255;28;20136;-69
2021/12/26 13:13:20;;;;;;;56.88;35.58;;;;;;;;;;5033888;28;20068;-68
2021/12/26 13:16:01;;;;;;;64.20;37.88;;;;;;;;;;5033150;28;20053;-68
2021/12/26 13:18:30;;;;;;;63.33;37.53;;;;;;;;;;5033685;28;20040;-72
2021/12/26 13:21:23;;;;;;;70.70;41.08;;;;;;;;;;5050238;28;20035;-68
2021/12/26 13:23:49;;;;;;;70.30;41.22;;;;;;;;;;5051910;28;20041;-68
2021/12/26 13:26:15;;;;;;;72.32;39.78;;;;;;;;;;5052454;28;20082;-68
2021/12/26 13:28:41;;;;;;;68.35;38.75;;;;;;;;;;5050004;28;20057;-68
2021/12/26 13:31:15;;;;;;;76.18;41.58;;;;;;;;;;5052802;28;20048;-68
2021/12/26 13:33:45;;;;;;;75.95;40.35;;;;;;;;;;5052440;28;20487;-68
2021/12/26 13:36:20;;;;;;;74.55;38.90;;;;;;;;;;5053169;28;20020;-69
2021/12/26 13:38:49;;;;;;;70.63;39.40;;;;;;;;;;5053852;28;20049;-69
2021/12/26 13:41:17;;;;;;;61.92;37.70;;;;;;;;;;5053445;28;20116;-68
2021/12/26 13:43:45;;;;;;;71.18;38.38;;;;;;;;;;5052849;28;20455;-68
2021/12/26 13:46:15;;;;;;;116.28;45.08;;;;;;;;;;5053040;28;20021;-69
2021/12/26 13:48:52;;;;;;;104.80;45.80;;;;;;;;;;5053335;28;20044;-69
2021/12/26 13:51:21;;;;;;;99.00;49.72;;;;;;;;;;5052963;28;20040;-71
2021/12/26 13:53:51;;;;;;;84.20;49.13;;;;;;;;;;5053403;28;20353;-69
2021/12/26 13:56:17;;;;;;;90.93;49.00;;;;;;;;;;5052825;28;20041;-70
2021/12/26 13:58:43;;;;;;;93.97;49.88;;;;;;;;;;5042131;28;20066;-70
2021/12/26 14:01:10;;;;;;;119.47;61.05;;;;;;;;;;5041264;28;20036;-68
2021/12/26 14:03:36;;;;;;;108.05;58.63;;;;;;;;;;5050935;28;20021;-69
2021/12/26 14:06:02;;;;;;;113.35;64.50;;;;;;;;;;5051773;28;20029;-69
2021/12/26 14:08:30;;;;;;;107.70;58.00;;;;;;;;;;5052674;28;20356;-71
2021/12/26 14:11:05;;;;;;;110.38;62.45;;;;;;;;;;5052787;28;20033;-70
2021/12/26 14:13:45;;;;;;;113.28;63.83;;;;;;;;;;5052442;28;20138;-68
2021/12/26 14:16:11;;;;;;;123.15;69.03;;;;;;;;;;5052574;28;20029;-71
2021/12/26 14:18:38;;;;;;;112.22;68.35;;;;;;;;;;5052865;28;20017;-70
2021/12/26 14:21:18;;;;;;;120.53;74.38;;;;;;;;;;5052465;28;20365;-69
2021/12/26 14:23:46;;;;;;;124.97;76.15;;;;;;;;;;5052826;28;20491;-70
2021/12/26 14:26:38;;;;;;;126.20;73.43;;;;;;;;;;5052655;28;20021;-69
2021/12/26 14:29:17;;;;;;;135.07;78.05;;;;;;;;;;5052327;28;20126;-69
2021/12/26 14:31:48;;;;;;;132.98;78.20;;;;;;;;;;5052369;28;20032;-68
2021/12/26 14:34:26;;;;;;;121.78;75.45;;;;;;;;;;5051697;28;20059;-70
2021/12/26 14:37:00;;;;;;;119.85;75.05;;;;;;;;;;5052446;28;20087;-69
2021/12/26 14:39:27;;;;;;;130.52;78.43;;;;;;;;;;5051347;28;20029;-69